createdAt,value
2022-08-26T00:01:29.746Z,8.33
2022-08-26T00:04:02.306Z,6.80
2022-08-26T00:06:31.307Z,8.50
2022-08-26T00:09:00.035Z,7.83
2022-08-26T00:11:28.706Z,9.70
2022-08-26T00:13:59.345Z,7.40
2022-08-26T00:16:28.479Z,12.60
2022-08-26T00:18:57.685Z,7.70
2022-08-26T00:21:26.857Z,6.73
2022-08-26T00:23:55.866Z,7.10
2022-08-26T00:26:24.884Z,8.27
2022-08-26T00:28:59.269Z,8.83
2022-08-26T00:31:31.203Z,6.60
2022-08-26T00:34:00.160Z,9.13
2022-08-26T00:36:29.693Z,7.37
2022-08-26T00:38:58.591Z,8.13
2022-08-26T00:41:27.348Z,11.93
2022-08-26T00:43:56.252Z,9.33
2022-08-26T00:46:31.421Z,8.00
2022-08-26T00:49:12.391Z,9.33
2022-08-26T00:51:44.405Z,8.83
2022-08-26T00:54:14.597Z,7.80
2022-08-26T00:56:45.333Z,8.73
2022-08-26T00:59:17.681Z,7.30
2022-08-26T01:01:48.203Z,9.00
2022-08-26T01:04:19.859Z,8.17
2022-08-26T01:06:49.905Z,9.90
2022-08-26T01:09:19.436Z,8.73
2022-08-26T01:11:48.948Z,9.17
2022-08-26T01:14:18.725Z,8.40
2022-08-26T01:16:50.904Z,8.90
2022-08-26T01:19:22.303Z,8.37
2022-08-26T01:21:53.933Z,10.37
2022-08-26T01:24:25.944Z,7.93
2022-08-26T01:26:58.309Z,9.23
2022-08-26T01:29:28.414Z,9.20
2022-08-26T01:31:58.786Z,11.60
2022-08-26T01:34:28.655Z,8.97
2022-08-26T01:37:00.792Z,8.27
2022-08-26T01:39:30.998Z,11.80
2022-08-26T01:42:02.981Z,11.17
2022-08-26T01:44:34.593Z,13.23
2022-08-26T01:47:03.365Z,10.07
2022-08-26T01:49:35.804Z,14.13
2022-08-26T01:52:05.855Z,11.17
2022-08-26T01:54:36.487Z,11.37
2022-08-26T01:57:07.285Z,12.53
2022-08-26T01:59:36.354Z,10.73
2022-08-26T02:02:05.115Z,10.63
2022-08-26T02:04:35.457Z,8.80
2022-08-26T02:07:04.987Z,9.07
2022-08-26T02:09:41.367Z,12.33
2022-08-26T02:12:10.536Z,11.67
2022-08-26T02:14:43.826Z,12.33
2022-08-26T02:17:13.164Z,11.63
2022-08-26T02:19:42.964Z,9.37
2022-08-26T02:22:15.028Z,8.10
2022-08-26T02:24:51.207Z,10.40
2022-08-26T02:27:21.774Z,11.63
2022-08-26T02:29:53.911Z,11.63
2022-08-26T02:32:22.702Z,15.60
2022-08-26T02:34:52.092Z,11.60
2022-08-26T02:37:20.793Z,21.17
2022-08-26T02:39:53.006Z,10.97
2022-08-26T02:42:21.882Z,16.10
2022-08-26T02:44:50.494Z,15.03
2022-08-26T02:47:19.316Z,12.20
2022-08-26T02:49:48.185Z,14.73
2022-08-26T02:52:17.146Z,12.90
2022-08-26T02:54:46.830Z,13.97
2022-08-26T02:57:20.643Z,26.23
2022-08-26T02:59:51.079Z,23.30
2022-08-26T03:02:19.805Z,25.10
2022-08-26T03:04:58.189Z,23.60
2022-08-26T03:07:32.319Z,25.57
2022-08-26T03:10:01.152Z,25.20
2022-08-26T03:12:37.564Z,26.93
2022-08-26T03:15:15.899Z,29.63
2022-08-26T03:17:46.991Z,17.83
2022-08-26T03:20:17.368Z,24.50
2022-08-26T03:22:46.795Z,26.80
2022-08-26T03:25:16.383Z,25.17
2022-08-26T03:27:46.609Z,28.63
2022-08-26T03:30:33.298Z,26.40
2022-08-26T03:33:02.199Z,25.73
2022-08-26T03:35:31.468Z,35.17
2022-08-26T03:38:00.628Z,37.20
2022-08-26T03:40:31.261Z,37.17
2022-08-26T03:43:01.822Z,33.83
2022-08-26T03:45:30.639Z,38.87
2022-08-26T03:47:59.412Z,33.77
2022-08-26T03:50:28.601Z,28.70
2022-08-26T03:52:57.494Z,35.30
2022-08-26T03:55:27.544Z,28.60
2022-08-26T03:57:56.327Z,28.37
2022-08-26T04:00:26.304Z,30.87
2022-08-26T04:02:54.929Z,28.00
2022-08-26T04:05:24.319Z,37.30
2022-08-26T04:07:56.992Z,43.87
2022-08-26T04:10:29.605Z,35.87
2022-08-26T04:12:59.311Z,36.10
2022-08-26T04:19:13.611Z,46.90
2022-08-26T04:21:42.317Z,36.13
2022-08-26T04:24:12.331Z,34.60
2022-08-26T04:26:42.778Z,43.17
2022-08-26T04:29:13.748Z,36.30
2022-08-26T04:31:55.422Z,45.53
2022-08-26T04:35:01.818Z,45.37
2022-08-26T04:37:32.729Z,51.33
2022-08-26T04:40:01.976Z,63.67
2022-08-26T04:42:32.122Z,73.30
2022-08-26T04:45:01.428Z,61.30
2022-08-26T04:47:34.519Z,68.17
2022-08-26T04:50:03.313Z,71.10
2022-08-26T04:52:34.274Z,80.53
2022-08-26T04:55:02.872Z,76.97
2022-08-26T04:57:31.919Z,75.27
2022-08-26T05:00:01.912Z,80.47
2022-08-26T05:02:32.597Z,79.63
2022-08-26T05:05:01.517Z,70.83
2022-08-26T05:07:30.245Z,78.17
2022-08-26T05:10:01.949Z,79.07
2022-08-26T05:12:32.847Z,69.67
2022-08-26T05:15:01.594Z,80.23
2022-08-26T05:17:30.253Z,89.37
2022-08-26T05:19:59.078Z,80.70
2022-08-26T05:22:27.872Z,91.33
2022-08-26T05:24:56.524Z,86.80
2022-08-26T05:27:26.960Z,92.40
2022-08-26T05:29:58.196Z,100.63
2022-08-26T05:32:27.563Z,95.33
2022-08-26T05:34:58.593Z,108.67
2022-08-26T05:37:27.325Z,85.70
2022-08-26T05:39:56.283Z,87.83
2022-08-26T05:42:25.255Z,96.93
2022-08-26T05:44:56.604Z,96.47
2022-08-26T05:47:25.598Z,108.73
2022-08-26T05:49:55.360Z,89.60
2022-08-26T05:52:25.839Z,92.70
2022-08-26T05:54:55.211Z,86.30
2022-08-26T05:57:23.842Z,102.77
2022-08-26T05:59:52.705Z,93.13
2022-08-26T06:02:23.296Z,99.93
2022-08-26T06:04:52.067Z,92.60
2022-08-26T06:07:41.011Z,84.83
2022-08-26T06:10:31.526Z,83.13
2022-08-26T06:13:04.614Z,76.87
2022-08-26T06:15:43.906Z,76.57
2022-08-26T06:18:15.914Z,79.23
2022-08-26T06:20:56.857Z,75.83
2022-08-26T06:23:47.425Z,66.47
2022-08-26T06:26:16.869Z,76.00
2022-08-26T06:28:45.915Z,84.17
2022-08-26T06:31:15.364Z,79.73
2022-08-26T06:33:45.760Z,82.33
2022-08-26T06:36:19.308Z,78.00
2022-08-26T06:38:48.765Z,67.17
2022-08-26T06:41:17.972Z,68.43
2022-08-26T06:43:46.875Z,81.07
2022-08-26T06:46:17.196Z,65.00
2022-08-26T06:48:47.901Z,72.57
2022-08-26T06:51:18.580Z,66.33
2022-08-26T06:53:48.633Z,69.33
2022-08-26T06:56:19.576Z,57.80
2022-08-26T06:58:50.006Z,63.30
2022-08-26T07:01:19.726Z,58.10
2022-08-26T07:03:51.891Z,56.03
2022-08-26T07:06:23.542Z,64.03
2022-08-26T07:08:53.152Z,53.33
2022-08-26T07:11:22.719Z,51.43
2022-08-26T07:13:53.635Z,45.70
2022-08-26T07:16:22.775Z,47.90
2022-08-26T07:18:53.907Z,49.80
2022-08-26T07:21:23.080Z,50.80
2022-08-26T07:23:55.436Z,55.30
2022-08-26T07:26:27.073Z,53.20
2022-08-26T07:28:58.264Z,48.97
2022-08-26T07:31:30.974Z,42.60
2022-08-26T07:34:04.229Z,46.20
2022-08-26T07:36:33.762Z,44.37
2022-08-26T07:39:02.454Z,48.30
2022-08-26T07:41:31.601Z,50.47
2022-08-26T07:44:00.577Z,48.63
2022-08-26T07:46:30.216Z,43.40
2022-08-26T07:48:59.813Z,50.10
2022-08-26T07:51:29.812Z,43.13
2022-08-26T07:53:58.572Z,48.57
2022-08-26T07:56:27.381Z,49.00
2022-08-26T07:58:56.012Z,47.67
2022-08-26T08:01:25.810Z,41.53
2022-08-26T08:03:55.757Z,47.47
2022-08-26T08:06:27.147Z,41.80
2022-08-26T08:08:57.505Z,45.07
2022-08-26T08:11:27.261Z,45.10
2022-08-26T08:13:56.928Z,47.40
2022-08-26T08:16:26.338Z,42.03
2022-08-26T08:18:56.502Z,41.90
2022-08-26T08:21:26.009Z,49.40
2022-08-26T08:23:55.328Z,40.13
2022-08-26T08:26:26.155Z,35.67
2022-08-26T08:28:55.901Z,36.90
2022-08-26T08:31:54.348Z,46.37
2022-08-26T08:34:15.427Z,44.37
2022-08-26T08:36:46.456Z,37.87
2022-08-26T08:39:15.302Z,38.63
2022-08-26T08:41:50.652Z,42.03
2022-08-26T08:44:21.540Z,39.50
2022-08-26T08:46:53.652Z,34.53
2022-08-26T08:49:23.700Z,29.07
2022-08-26T08:51:55.964Z,31.73
2022-08-26T08:54:26.370Z,31.27
2022-08-26T08:57:02.773Z,33.10
2022-08-26T08:59:34.456Z,37.73
2022-08-26T09:02:07.835Z,29.33
2022-08-26T09:04:54.141Z,29.17
2022-08-26T09:07:25.051Z,27.10
2022-08-26T09:09:57.199Z,29.53
2022-08-26T09:12:29.599Z,32.60
2022-08-26T09:15:02.417Z,23.87
2022-08-26T09:17:38.493Z,25.23
2022-08-26T09:20:11.785Z,29.33
2022-08-26T09:22:44.326Z,30.03
2022-08-26T09:25:14.310Z,26.50
2022-08-26T09:27:46.061Z,27.50
2022-08-26T09:30:17.679Z,23.03
2022-08-26T09:32:58.750Z,25.93
2022-08-26T09:35:30.919Z,24.37
2022-08-26T09:38:00.342Z,23.53
2022-08-26T09:40:34.657Z,27.80
2022-08-26T09:43:09.552Z,25.67
2022-08-26T09:45:38.792Z,29.13
2022-08-26T09:48:08.714Z,29.00
2022-08-26T09:50:39.891Z,28.20
2022-08-26T09:53:12.848Z,24.70
2022-08-26T09:55:42.963Z,30.00
2022-08-26T09:58:16.671Z,38.73
2022-08-26T10:00:55.675Z,25.50
2022-08-26T10:03:27.333Z,28.27
2022-08-26T10:06:01.355Z,27.57
2022-08-26T10:08:32.625Z,28.43
2022-08-26T10:11:02.236Z,33.23
2022-08-26T10:13:36.373Z,29.30
2022-08-26T10:16:14.548Z,33.73
2022-08-26T10:18:45.694Z,36.07
2022-08-26T10:21:18.175Z,33.17
2022-08-26T10:23:48.962Z,33.03
2022-08-26T10:26:19.923Z,33.70
2022-08-26T10:28:51.861Z,30.73
2022-08-26T10:31:27.684Z,34.47
2022-08-26T10:34:00.338Z,32.20
2022-08-26T10:39:43.857Z,37.83
2022-08-26T10:42:18.646Z,30.47
2022-08-26T10:44:51.857Z,31.00
2022-08-26T10:47:23.384Z,29.83
2022-08-26T10:50:00.453Z,29.00
2022-08-26T10:52:36.901Z,28.73
2022-08-26T10:55:14.116Z,26.13
2022-08-26T10:57:50.926Z,25.30
2022-08-26T11:00:39.603Z,28.13
2022-08-26T11:03:21.746Z,26.20
2022-08-26T11:06:06.625Z,28.60
2022-08-26T11:08:35.977Z,27.40
2022-08-26T11:11:04.880Z,23.87
2022-08-26T11:14:02.384Z,29.53
2022-08-26T11:16:42.882Z,26.60
2022-08-26T11:19:50.518Z,25.53
2022-08-26T11:22:27.550Z,27.63
2022-08-26T11:25:07.497Z,21.90
2022-08-26T11:27:54.316Z,21.80
2022-08-26T11:30:38.561Z,19.60
2022-08-26T11:33:10.642Z,20.10
2022-08-26T11:35:52.438Z,19.50
2022-08-26T11:38:27.178Z,17.13
2022-08-26T11:41:09.420Z,16.50
2022-08-26T11:43:39.842Z,16.03
2022-08-26T11:46:10.457Z,17.77
2022-08-26T11:48:42.456Z,18.33
2022-08-26T11:51:13.426Z,17.37
2022-08-26T11:53:44.750Z,13.83
2022-08-26T11:56:19.513Z,16.47
2022-08-26T11:58:50.487Z,14.70
2022-08-26T12:01:25.864Z,14.37
2022-08-26T12:03:56.863Z,15.63
2022-08-26T12:06:28.206Z,13.47
2022-08-26T12:08:59.874Z,10.40
2022-08-26T12:11:31.014Z,18.00
2022-08-26T12:14:01.424Z,13.13
2022-08-26T12:16:31.379Z,10.67
2022-08-26T12:19:01.715Z,9.90
2022-08-26T12:21:34.920Z,12.70
2022-08-26T12:24:04.908Z,11.43
2022-08-26T12:26:35.028Z,12.90
2022-08-26T12:29:19.723Z,11.80
2022-08-26T12:31:49.755Z,11.27
2022-08-26T12:34:20.061Z,13.83
2022-08-26T12:36:49.795Z,9.80
2022-08-26T12:39:26.791Z,9.53
2022-08-26T12:41:57.232Z,19.87
2022-08-26T12:44:36.662Z,17.23
2022-08-26T12:47:08.458Z,15.80
2022-08-26T12:49:39.431Z,17.47
2022-08-26T12:52:09.147Z,16.00
2022-08-26T12:54:57.042Z,25.87
2022-08-26T12:57:27.991Z,22.27
2022-08-26T12:59:56.909Z,14.83
2022-08-26T13:02:38.252Z,14.33
2022-08-26T13:05:08.900Z,11.40
2022-08-26T13:07:38.196Z,14.93
2022-08-26T13:10:07.135Z,10.97
2022-08-26T13:12:37.367Z,10.80
2022-08-26T13:15:07.084Z,18.77
2022-08-26T13:17:36.062Z,15.90
2022-08-26T13:20:07.735Z,13.27
2022-08-26T13:22:38.339Z,11.03
2022-08-26T13:25:08.042Z,15.23
2022-08-26T13:27:37.410Z,12.23
2022-08-26T13:30:06.346Z,8.37
2022-08-26T13:32:36.373Z,7.47
2022-08-26T13:35:06.725Z,7.30
2022-08-26T13:37:36.261Z,6.83
2022-08-26T13:40:07.927Z,9.90
2022-08-26T13:42:36.801Z,5.10
2022-08-26T13:45:18.281Z,7.30
2022-08-26T13:47:47.062Z,9.43
2022-08-26T13:50:15.893Z,6.53
2022-08-26T13:52:44.562Z,10.17
2022-08-26T13:55:14.647Z,5.83
2022-08-26T13:57:43.409Z,7.23
2022-08-26T14:00:12.822Z,8.93
2022-08-26T14:02:41.639Z,5.63
2022-08-26T14:05:10.676Z,7.80
2022-08-26T14:07:39.408Z,7.40
2022-08-26T14:10:09.101Z,7.10
2022-08-26T14:12:41.736Z,10.63
2022-08-26T14:15:10.920Z,5.17
2022-08-26T14:17:40.432Z,7.17
2022-08-26T14:20:12.961Z,4.30
2022-08-26T14:22:57.477Z,7.47
2022-08-26T14:25:31.175Z,6.40
2022-08-26T14:28:01.849Z,7.63
2022-08-26T14:30:30.491Z,8.53
2022-08-26T14:33:00.376Z,12.37
2022-08-26T14:35:30.478Z,5.70
2022-08-26T14:37:59.631Z,6.80
2022-08-26T14:40:30.464Z,6.27
2022-08-26T14:43:01.253Z,6.73
2022-08-26T14:45:30.211Z,7.23
2022-08-26T14:47:59.818Z,7.00
2022-08-26T14:50:28.561Z,10.27
2022-08-26T14:53:15.129Z,8.50
2022-08-26T14:55:44.195Z,10.73
2022-08-26T14:58:14.410Z,12.87
2022-08-26T15:00:43.040Z,9.77
2022-08-26T15:03:11.701Z,8.60
2022-08-26T15:05:48.137Z,10.17
2022-08-26T15:08:17.388Z,7.70
2022-08-26T15:10:46.213Z,6.07
2022-08-26T15:13:16.227Z,5.67
2022-08-26T15:15:45.240Z,6.77
2022-08-26T15:18:13.985Z,8.13
2022-08-26T15:20:42.917Z,7.03
2022-08-26T15:23:12.020Z,6.47
2022-08-26T15:25:40.766Z,7.17
2022-08-26T15:28:09.302Z,9.97
2022-08-26T15:30:39.684Z,7.73
2022-08-26T15:33:15.306Z,6.07
2022-08-26T15:35:44.211Z,6.43
2022-08-26T15:38:15.198Z,5.00
2022-08-26T15:40:46.228Z,12.20
2022-08-26T15:43:27.891Z,8.93
2022-08-26T15:46:00.225Z,5.87
2022-08-26T15:48:29.079Z,11.03
2022-08-26T15:51:00.394Z,10.10
2022-08-26T15:53:29.609Z,8.10
2022-08-26T15:55:59.390Z,7.10
2022-08-26T15:58:29.696Z,8.00
2022-08-26T16:01:00.557Z,8.27
2022-08-26T16:03:29.318Z,7.37
2022-08-26T16:05:58.109Z,7.07
2022-08-26T16:08:27.168Z,10.03
2022-08-26T16:11:03.414Z,12.40
2022-08-26T16:13:39.505Z,6.57
2022-08-26T16:16:10.531Z,10.50
2022-08-26T16:18:39.319Z,14.37
2022-08-26T16:21:14.029Z,8.70
2022-08-26T16:23:43.282Z,8.43
2022-08-26T16:26:16.796Z,6.13
2022-08-26T16:28:45.659Z,9.63
2022-08-26T16:31:15.992Z,6.60
2022-08-26T16:33:44.643Z,13.90
2022-08-26T16:36:14.065Z,9.83
2022-08-26T16:38:43.004Z,9.10
2022-08-26T16:41:11.705Z,7.50
2022-08-26T16:43:40.474Z,7.93
2022-08-26T16:46:11.221Z,9.37
2022-08-26T16:48:41.348Z,11.47
2022-08-26T16:51:12.316Z,9.50
2022-08-26T16:53:41.309Z,7.50
2022-08-26T16:56:13.777Z,8.33
2022-08-26T16:58:42.664Z,14.53
2022-08-26T17:01:11.271Z,9.37
2022-08-26T17:03:41.574Z,7.90
2022-08-26T17:06:11.005Z,8.40
2022-08-26T17:08:40.016Z,8.00
2022-08-26T17:11:09.585Z,11.00
2022-08-26T17:13:39.097Z,18.00
2022-08-26T17:16:09.971Z,9.87
2022-08-26T17:18:42.389Z,11.23
2022-08-26T17:21:14.198Z,7.50
2022-08-26T17:23:43.581Z,11.30
2022-08-26T17:26:13.060Z,12.00
2022-08-26T17:28:41.858Z,8.07
2022-08-26T17:31:13.787Z,7.00
2022-08-26T17:33:42.948Z,12.87
2022-08-26T17:36:13.275Z,8.50
2022-08-26T17:38:43.270Z,9.43
2022-08-26T17:41:15.948Z,8.30
2022-08-26T17:43:44.689Z,9.23
2022-08-26T17:46:13.935Z,10.57
2022-08-26T17:48:43.009Z,10.63
2022-08-26T17:51:14.093Z,8.90
2022-08-26T17:53:43.025Z,7.13
2022-08-26T17:56:13.674Z,11.43
2022-08-26T17:58:51.377Z,12.67
2022-08-26T18:01:21.798Z,11.80
2022-08-26T18:03:50.925Z,9.93
2022-08-26T18:06:23.961Z,12.53
2022-08-26T18:08:53.580Z,12.33
2022-08-26T18:11:24.535Z,7.93
2022-08-26T18:13:53.612Z,13.87
2022-08-26T18:16:22.660Z,8.93
2022-08-26T18:18:53.546Z,12.63
2022-08-26T18:21:24.742Z,10.83
2022-08-26T18:23:53.873Z,12.13
2022-08-26T18:26:25.269Z,11.03
2022-08-26T18:28:54.636Z,9.43
2022-08-26T18:31:23.960Z,8.77
2022-08-26T18:33:52.960Z,11.50
2022-08-26T18:36:23.572Z,10.63
2022-08-26T18:38:54.327Z,15.00
2022-08-26T18:41:24.181Z,7.60
2022-08-26T18:43:54.249Z,7.47
2022-08-26T18:46:24.950Z,8.10
2022-08-26T18:48:53.850Z,9.57
2022-08-26T18:51:24.461Z,7.10
2022-08-26T18:53:55.344Z,9.77
2022-08-26T18:56:24.629Z,6.63
2022-08-26T18:58:53.590Z,5.97
2022-08-26T19:01:26.727Z,6.33
2022-08-26T19:03:56.793Z,6.37
2022-08-26T19:06:26.122Z,6.03
2022-08-26T19:08:57.954Z,7.70
2022-08-26T19:11:32.442Z,5.73
2022-08-26T19:14:10.936Z,7.60
2022-08-26T19:16:40.267Z,10.07
2022-08-26T19:19:13.637Z,7.40
2022-08-26T19:21:42.479Z,9.23
2022-08-26T19:24:15.452Z,4.70
2022-08-26T19:26:45.124Z,8.63
2022-08-26T19:29:13.944Z,7.80
2022-08-26T19:31:44.108Z,14.17
2022-08-26T19:34:18.319Z,8.60
2022-08-26T19:36:50.105Z,6.00
2022-08-26T19:39:20.134Z,5.97
2022-08-26T19:41:48.977Z,7.10
2022-08-26T19:44:38.892Z,4.80
2022-08-26T19:47:09.272Z,5.80
2022-08-26T19:49:38.200Z,5.50
2022-08-26T19:52:07.104Z,6.63
2022-08-26T19:54:37.361Z,6.83
2022-08-26T19:57:06.558Z,4.93
2022-08-26T19:59:36.204Z,6.50
2022-08-26T20:02:08.635Z,5.83
2022-08-26T20:04:42.729Z,5.37
2022-08-26T20:07:15.359Z,7.13
2022-08-26T20:09:49.254Z,6.77
2022-08-26T20:12:18.725Z,9.03
2022-08-26T20:14:47.598Z,5.97
2022-08-26T20:17:17.086Z,11.07
2022-08-26T20:20:03.262Z,7.33
2022-08-26T20:22:33.921Z,9.23
2022-08-26T20:25:03.978Z,9.37
2022-08-26T20:27:34.363Z,6.37
2022-08-26T20:30:08.348Z,4.87
2022-08-26T20:32:37.417Z,7.00
2022-08-26T20:35:07.245Z,11.70
2022-08-26T20:37:36.824Z,6.00
2022-08-26T20:40:08.904Z,6.10
2022-08-26T20:42:38.032Z,5.20
2022-08-26T20:45:07.544Z,7.17
2022-08-26T20:47:36.342Z,7.17
2022-08-26T20:50:05.911Z,7.40
2022-08-26T20:52:34.535Z,5.20
2022-08-26T20:55:03.602Z,6.50
2022-08-26T20:57:33.714Z,7.13
2022-08-26T21:00:02.452Z,10.93
2022-08-26T21:02:31.131Z,8.57
2022-08-26T21:04:59.930Z,6.73
2022-08-26T21:07:30.143Z,6.03
2022-08-26T21:09:59.310Z,7.07
2022-08-26T21:12:28.327Z,7.23
2022-08-26T21:14:58.478Z,6.50
2022-08-26T21:17:27.237Z,7.63
2022-08-26T21:19:55.992Z,6.83
2022-08-26T21:22:25.021Z,5.87
2022-08-26T21:24:53.966Z,10.07
2022-08-26T21:27:23.080Z,5.30
2022-08-26T21:29:55.418Z,7.13
2022-08-26T21:32:25.488Z,5.80
2022-08-26T21:34:55.853Z,8.57
2022-08-26T21:37:24.481Z,8.43
2022-08-26T21:39:55.235Z,6.23
2022-08-26T21:42:24.590Z,4.97
2022-08-26T21:44:53.732Z,7.63
2022-08-26T21:47:23.048Z,11.67
2022-08-26T21:49:54.290Z,7.27
2022-08-26T21:52:22.963Z,10.07
2022-08-26T21:54:51.834Z,11.77
2022-08-26T21:57:21.096Z,9.33
2022-08-26T21:59:50.102Z,6.13
2022-08-26T22:02:18.883Z,5.10
2022-08-26T22:04:48.947Z,15.40
2022-08-26T22:07:19.974Z,5.43
2022-08-26T22:09:49.556Z,10.60
2022-08-26T22:12:19.048Z,7.47
2022-08-26T22:14:48.104Z,7.20
2022-08-26T22:17:16.888Z,9.50
2022-08-26T22:19:46.722Z,8.30
2022-08-26T22:22:15.983Z,7.70
2022-08-26T22:24:46.036Z,8.70
2022-08-26T22:27:15.104Z,6.33
2022-08-26T22:29:43.801Z,7.83
2022-08-26T22:32:12.430Z,10.30
2022-08-26T22:34:41.843Z,8.70
2022-08-26T22:37:10.527Z,13.93
2022-08-26T22:39:39.396Z,9.80
2022-08-26T22:42:09.830Z,12.83
2022-08-26T22:44:38.915Z,8.50
2022-08-26T22:47:08.113Z,11.57
2022-08-26T22:49:36.952Z,8.53
2022-08-26T22:52:05.773Z,14.33
2022-08-26T22:54:34.521Z,12.53
2022-08-26T22:57:03.146Z,11.20
2022-08-26T22:59:33.148Z,14.83
2022-08-26T23:02:01.787Z,12.43
2022-08-26T23:04:32.690Z,14.03
2022-08-26T23:07:03.466Z,15.67
2022-08-26T23:09:32.021Z,14.03
2022-08-26T23:12:00.971Z,10.40
2022-08-26T23:14:29.701Z,10.80
2022-08-26T23:16:59.906Z,15.30
2022-08-26T23:19:28.855Z,15.93
2022-08-26T23:21:57.633Z,18.50
2022-08-26T23:24:26.380Z,14.47
2022-08-26T23:26:55.317Z,15.13
2022-08-26T23:29:26.583Z,12.23
2022-08-26T23:31:56.112Z,11.50
2022-08-26T23:34:46.834Z,12.83
2022-08-26T23:37:17.022Z,9.53
2022-08-26T23:39:46.040Z,9.77
2022-08-26T23:42:14.865Z,8.00
2022-08-26T23:44:43.610Z,7.43
2022-08-26T23:47:12.796Z,8.63
2022-08-26T23:49:43.088Z,10.73
2022-08-26T23:52:29.580Z,10.23
2022-08-26T23:54:58.485Z,10.27
2022-08-26T23:57:27.688Z,11.50
2022-08-26T23:59:56.331Z,7.67
